Anniston Metropolitan Airport
KANB : now visible

Airfield :











YOU CAN JOIN US ON...

 
LOGIN :

Register | Disclaimer

   EN    FR    IT 

 









Legend :    VFR   Marginal VFR   IFR   Intensive IFR   Very Intensive IFR
Visi :
Ceiling :
>= 8 km
>= 3000ft
5 to 8 km
1000 to 3000 ft
1500m to 5 km
500 to 1000 ft
800 to 1500m
200 to 500 ft
< 800m
< 200 ft
Symbols :   Thunderstorms  Fog  Heavy snow  Heavy precipitations  Wind > 20 kt






- Airport Elevation : 612 ft
- IATA code : ANB


KANB - Anniston Metropolitan

CURRENT METAR :
  • 271538Z AUTO 08006KT 10SM SCT011 23/19 A3017 RMK AO2 T02280189 PNO

EXPIRED METARs :
  • 271453Z AUTO 08005KT 10SM OVC010 21/19 A3017 RMK AO2 CIG 008V013 SLP213 6//// T02110189 51007 PNO
  • 271353Z AUTO 07005KT 10SM OVC006 21/19 A3017 RMK AO2 CIG 005V009 SLP211 T02060189 PNO
  • 271253Z AUTO 05006KT 8SM OVC006 20/18 A3016 RMK AO2 SLP209 T02000183 PNO

TAF KANB
Valid from the 27 at 12:00 until the 28 at 12:00 UTC


271126Z 2712/2812 06005KT P6SM -DZ OVC007
FM271500 08005KT P6SM OVC010
FM271800 09005KT P6SM BKN025
FM272100 09005KT P6SM OVC040
FM280400 08005KT 5SM -SHRA OVC020
FM280800 11005KT 3SM -SHRA OVC008
KZTL FIR / North America



MET'MAP, your aeronautical weather chart ! - Copyright ORBIFLY December 2007 - Disclaimer

ORBIFLY MET'MAP TEAM :

Programming & Development : Alexandra Zaïnal
Concept & original design : Baudouin d'Aumeries
Assistance for programming : Marc-Olivier Méhu
Technical & hardware support : Manuel Goepfert

Contact : metmap@orbifly.com




SOURCES & CREDITS :

   NOAA       Earth
Advisory